sensor_id;sensor_type;location;lat;lon;timestamp;pressure;altitude;pressure_sealevel;temperature;humidity
73297;BME280;61524;50.938;11.396;2022-12-16T00:01:09;98322.13;;;-13.40;96.92
73297;BME280;61524;50.938;11.396;2022-12-16T00:03:35;98311.03;;;-13.40;96.29
73297;BME280;61524;50.938;11.396;2022-12-16T00:06:01;98325.41;;;-13.38;96.55
73297;BME280;61524;50.938;11.396;2022-12-16T00:08:32;98334.63;;;-13.35;97.99
73297;BME280;61524;50.938;11.396;2022-12-16T00:10:59;98328.22;;;-13.30;96.69
73297;BME280;61524;50.938;11.396;2022-12-16T00:13:25;98330.44;;;-13.25;97.15
73297;BME280;61524;50.938;11.396;2022-12-16T00:15:51;98328.81;;;-13.26;96.80
73297;BME280;61524;50.938;11.396;2022-12-16T00:18:16;98307.19;;;-13.24;97.38
73297;BME280;61524;50.938;11.396;2022-12-16T00:20:48;98312.44;;;-13.14;97.35
73297;BME280;61524;50.938;11.396;2022-12-16T00:23:15;98315.72;;;-13.12;97.37
73297;BME280;61524;50.938;11.396;2022-12-16T00:25:45;98312.69;;;-13.17;97.16
73297;BME280;61524;50.938;11.396;2022-12-16T00:28:12;98311.28;;;-13.10;97.54
73297;BME280;61524;50.938;11.396;2022-12-16T00:30:38;98310.47;;;-12.99;96.58
73297;BME280;61524;50.938;11.396;2022-12-16T00:33:05;98308.81;;;-12.89;97.43
73297;BME280;61524;50.938;11.396;2022-12-16T00:35:31;98296.56;;;-12.85;97.66
73297;BME280;61524;50.938;11.396;2022-12-16T00:37:56;98278.56;;;-12.85;96.88
73297;BME280;61524;50.938;11.396;2022-12-16T00:40:22;98285.56;;;-12.76;98.04
73297;BME280;61524;50.938;11.396;2022-12-16T00:42:47;98302.50;;;-12.62;97.90
73297;BME280;61524;50.938;11.396;2022-12-16T00:45:13;98294.78;;;-12.62;97.44
73297;BME280;61524;50.938;11.396;2022-12-16T00:47:38;98308.56;;;-12.52;97.82
73297;BME280;61524;50.938;11.396;2022-12-16T00:50:04;98300.72;;;-12.51;98.04
73297;BME280;61524;50.938;11.396;2022-12-16T00:52:30;98307.72;;;-12.41;97.35
73297;BME280;61524;50.938;11.396;2022-12-16T00:54:55;98292.84;;;-12.38;97.99
73297;BME280;61524;50.938;11.396;2022-12-16T00:57:21;98311.75;;;-12.28;98.05
73297;BME280;61524;50.938;11.396;2022-12-16T00:59:47;98307.19;;;-12.24;97.13
73297;BME280;61524;50.938;11.396;2022-12-16T01:02:12;98309.56;;;-12.32;97.13
73297;BME280;61524;50.938;11.396;2022-12-16T01:04:39;98323.47;;;-12.24;97.07
73297;BME280;61524;50.938;11.396;2022-12-16T01:07:04;98324.53;;;-12.26;97.50
73297;BME280;61524;50.938;11.396;2022-12-16T01:09:30;98312.13;;;-12.32;97.26
73297;BME280;61524;50.938;11.396;2022-12-16T01:11:55;98295.56;;;-12.51;96.50
73297;BME280;61524;50.938;11.396;2022-12-16T01:14:21;98308.88;;;-12.34;96.93
73297;BME280;61524;50.938;11.396;2022-12-16T01:16:46;98303.09;;;-12.27;97.88
73297;BME280;61524;50.938;11.396;2022-12-16T01:19:12;98309.06;;;-12.15;97.25
73297;BME280;61524;50.938;11.396;2022-12-16T01:21:37;98307.53;;;-12.18;97.52
73297;BME280;61524;50.938;11.396;2022-12-16T01:24:03;98314.44;;;-12.18;97.22
73297;BME280;61524;50.938;11.396;2022-12-16T01:26:29;98296.91;;;-12.24;97.22
73297;BME280;61524;50.938;11.396;2022-12-16T01:28:56;98318.72;;;-12.07;97.85
73297;BME280;61524;50.938;11.396;2022-12-16T01:31:22;98311.50;;;-12.13;97.92
73297;BME280;61524;50.938;11.396;2022-12-16T01:33:48;98308.97;;;-12.25;97.75
73297;BME280;61524;50.938;11.396;2022-12-16T01:36:15;98301.47;;;-12.28;97.15
73297;BME280;61524;50.938;11.396;2022-12-16T01:38:42;98315.06;;;-12.26;97.54
73297;BME280;61524;50.938;11.396;2022-12-16T01:41:13;98303.03;;;-12.36;96.75
73297;BME280;61524;50.938;11.396;2022-12-16T01:43:40;98312.13;;;-12.32;96.75
73297;BME280;61524;50.938;11.396;2022-12-16T01:48:47;98306.53;;;-12.49;96.74
73297;BME280;61524;50.938;11.396;2022-12-16T01:51:19;98327.72;;;-12.45;97.59
73297;BME280;61524;50.938;11.396;2022-12-16T01:53:48;98320.84;;;-12.56;97.56
73297;BME280;61524;50.938;11.396;2022-12-16T01:56:17;98317.31;;;-12.55;97.74
73297;BME280;61524;50.938;11.396;2022-12-16T01:58:44;98305.75;;;-12.60;97.17
73297;BME280;61524;50.938;11.396;2022-12-16T02:01:11;98307.75;;;-12.64;97.88
73297;BME280;61524;50.938;11.396;2022-12-16T02:03:37;98307.75;;;-12.64;96.78
73297;BME280;61524;50.938;11.396;2022-12-16T02:06:05;98310.09;;;-12.72;97.65
73297;BME280;61524;50.938;11.396;2022-12-16T02:08:31;98306.50;;;-12.69;98.18
73297;BME280;61524;50.938;11.396;2022-12-16T02:11:27;98308.47;;;-12.73;97.83
73297;BME280;61524;50.938;11.396;2022-12-16T02:27:44;98319.22;;;-12.79;97.41
73297;BME280;61524;50.938;11.396;2022-12-16T02:35:55;98319.78;;;-12.87;97.03
73297;BME280;61524;50.938;11.396;2022-12-16T02:41:21;98315.94;;;-12.92;97.19
73297;BME280;61524;50.938;11.396;2022-12-16T02:44:08;98317.69;;;-12.93;98.08
73297;BME280;61524;50.938;11.396;2022-12-16T02:46:40;98324.38;;;-12.90;97.00
73297;BME280;61524;50.938;11.396;2022-12-16T02:51:51;98309.44;;;-12.97;96.61
73297;BME280;61524;50.938;11.396;2022-12-16T02:54:18;98310.00;;;-13.04;96.44
73297;BME280;61524;50.938;11.396;2022-12-16T03:02:19;98322.97;;;-13.06;96.91
73297;BME280;61524;50.938;11.396;2022-12-16T03:04:57;98330.31;;;-13.12;97.06
73297;BME280;61524;50.938;11.396;2022-12-16T03:07:30;98333.22;;;-13.17;96.49
73297;BME280;61524;50.938;11.396;2022-12-16T03:09:58;98322.72;;;-13.36;96.85
73297;BME280;61524;50.938;11.396;2022-12-16T03:12:24;98336.97;;;-13.32;97.11
73297;BME280;61524;50.938;11.396;2022-12-16T03:14:52;98328.09;;;-13.39;96.78
73297;BME280;61524;50.938;11.396;2022-12-16T03:17:20;98340.47;;;-13.33;97.50
73297;BME280;61524;50.938;11.396;2022-12-16T03:20:34;98328.31;;;-13.42;97.02
73297;BME280;61524;50.938;11.396;2022-12-16T03:22:41;98339.19;;;-13.39;96.88
73297;BME280;61524;50.938;11.396;2022-12-16T03:25:08;98328.03;;;-13.51;96.60
73297;BME280;61524;50.938;11.396;2022-12-16T03:27:45;98337.41;;;-13.49;97.78
73297;BME280;61524;50.938;11.396;2022-12-16T03:30:27;98343.69;;;-13.54;96.70
73297;BME280;61524;50.938;11.396;2022-12-16T03:33:41;98344.72;;;-13.56;98.13
73297;BME280;61524;50.938;11.396;2022-12-16T03:35:48;98350.44;;;-13.64;97.22
73297;BME280;61524;50.938;11.396;2022-12-16T03:38:16;98337.78;;;-13.78;96.48
73297;BME280;61524;50.938;11.396;2022-12-16T03:40:44;98338.25;;;-13.73;96.35
73297;BME280;61524;50.938;11.396;2022-12-16T03:43:11;98327.63;;;-13.80;97.01
73297;BME280;61524;50.938;11.396;2022-12-16T03:45:43;98335.44;;;-13.81;96.10
73297;BME280;61524;50.938;11.396;2022-12-16T03:48:11;98333.31;;;-13.87;97.09
73297;BME280;61524;50.938;11.396;2022-12-16T03:50:38;98350.47;;;-13.88;97.07
73297;BME280;61524;50.938;11.396;2022-12-16T03:53:04;98351.88;;;-13.84;97.27
73297;BME280;61524;50.938;11.396;2022-12-16T03:55:30;98350.06;;;-13.94;97.31
73297;BME280;61524;50.938;11.396;2022-12-16T03:57:56;98351.81;;;-13.95;96.43
73297;BME280;61524;50.938;11.396;2022-12-16T04:00:23;98352.88;;;-13.97;96.46
73297;BME280;61524;50.938;11.396;2022-12-16T04:02:49;98347.69;;;-14.09;96.87
73297;BME280;61524;50.938;11.396;2022-12-16T04:05:14;98360.19;;;-14.04;96.16
73297;BME280;61524;50.938;11.396;2022-12-16T04:07:43;98354.47;;;-14.08;97.21
73297;BME280;61524;50.938;11.396;2022-12-16T04:10:09;98358.84;;;-14.10;96.63
73297;BME280;61524;50.938;11.396;2022-12-16T04:12:34;98361.34;;;-14.08;97.58
73297;BME280;61524;50.938;11.396;2022-12-16T04:15:18;98363.41;;;-14.13;96.83
73297;BME280;61524;50.938;11.396;2022-12-16T04:18:03;98368.41;;;-14.12;96.77
73297;BME280;61524;50.938;11.396;2022-12-16T04:20:54;98363.72;;;-14.18;95.76
73297;BME280;61524;50.938;11.396;2022-12-16T04:23:48;98365.47;;;-14.18;96.34
73297;BME280;61524;50.938;11.396;2022-12-16T04:26:33;98372.94;;;-14.15;96.60
73297;BME280;61524;50.938;11.396;2022-12-16T04:29:19;98365.34;;;-14.17;95.98
73297;BME280;61524;50.938;11.396;2022-12-16T04:31:44;98368.69;;;-14.27;96.40
73297;BME280;61524;50.938;11.396;2022-12-16T04:34:10;98377.91;;;-14.25;96.26
73297;BME280;61524;50.938;11.396;2022-12-16T04:36:55;98376.66;;;-14.19;95.51
73297;BME280;61524;50.938;11.396;2022-12-16T04:39:40;98375.06;;;-14.33;96.22
73297;BME280;61524;50.938;11.396;2022-12-16T04:42:24;98378.25;;;-14.30;96.58
73297;BME280;61524;50.938;11.396;2022-12-16T04:45:08;98399.47;;;-14.27;97.31
73297;BME280;61524;50.938;11.396;2022-12-16T04:47:52;98392.81;;;-14.30;96.46
73297;BME280;61524;50.938;11.396;2022-12-16T04:50:37;98397.44;;;-14.35;95.92
73297;BME280;61524;50.938;11.396;2022-12-16T04:53:21;98386.44;;;-14.37;95.33
73297;BME280;61524;50.938;11.396;2022-12-16T04:56:05;98396.63;;;-14.36;96.04
73297;BME280;61524;50.938;11.396;2022-12-16T04:58:49;98396.72;;;-14.37;95.89
73297;BME280;61524;50.938;11.396;2022-12-16T05:01:33;98397.63;;;-14.38;96.69
73297;BME280;61524;50.938;11.396;2022-12-16T05:04:17;98397.75;;;-14.40;96.09
73297;BME280;61524;50.938;11.396;2022-12-16T05:07:01;98396.94;;;-14.40;95.84
73297;BME280;61524;50.938;11.396;2022-12-16T05:09:45;98418.25;;;-14.40;94.87
73297;BME280;61524;50.938;11.396;2022-12-16T05:12:29;98413.56;;;-14.46;95.07
73297;BME280;61524;50.938;11.396;2022-12-16T05:15:13;98405.66;;;-14.43;96.15
73297;BME280;61524;50.938;11.396;2022-12-16T05:17:57;98419.28;;;-14.42;95.67
73297;BME280;61524;50.938;11.396;2022-12-16T05:20:41;98412.09;;;-14.37;95.97
73297;BME280;61524;50.938;11.396;2022-12-16T05:23:25;98417.22;;;-14.37;96.45
73297;BME280;61524;50.938;11.396;2022-12-16T05:26:08;98406.06;;;-14.36;96.50
73297;BME280;61524;50.938;11.396;2022-12-16T05:28:52;98408.63;;;-14.36;95.80
73297;BME280;61524;50.938;11.396;2022-12-16T05:31:36;98417.66;;;-14.43;95.59
73297;BME280;61524;50.938;11.396;2022-12-16T05:34:20;98422.16;;;-14.34;95.75
73297;BME280;61524;50.938;11.396;2022-12-16T05:37:05;98422.34;;;-14.37;96.95
73297;BME280;61524;50.938;11.396;2022-12-16T05:39:49;98410.06;;;-14.45;96.73
73297;BME280;61524;50.938;11.396;2022-12-16T05:42:33;98421.25;;;-14.46;95.63
73297;BME280;61524;50.938;11.396;2022-12-16T05:45:17;98418.47;;;-14.43;96.51
73297;BME280;61524;50.938;11.396;2022-12-16T05:48:01;98432.84;;;-14.40;96.22
73297;BME280;61524;50.938;11.396;2022-12-16T05:50:45;98418.97;;;-14.38;95.40
73297;BME280;61524;50.938;11.396;2022-12-16T05:53:29;98420.66;;;-14.49;96.65
73297;BME280;61524;50.938;11.396;2022-12-16T05:56:13;98420.88;;;-14.65;95.63
73297;BME280;61524;50.938;11.396;2022-12-16T05:58:57;98441.78;;;-14.59;95.70
73297;BME280;61524;50.938;11.396;2022-12-16T06:01:41;98443.75;;;-14.62;95.78
73297;BME280;61524;50.938;11.396;2022-12-16T06:04:25;98452.97;;;-14.60;96.79
73297;BME280;61524;50.938;11.396;2022-12-16T06:07:09;98444.59;;;-14.62;95.23
73297;BME280;61524;50.938;11.396;2022-12-16T06:09:53;98441.00;;;-14.72;95.52
73297;BME280;61524;50.938;11.396;2022-12-16T06:12:37;98430.53;;;-14.81;95.45
73297;BME280;61524;50.938;11.396;2022-12-16T06:15:21;98455.03;;;-14.65;96.52
73297;BME280;61524;50.938;11.396;2022-12-16T06:18:05;98458.63;;;-14.67;96.13
73297;BME280;61524;50.938;11.396;2022-12-16T06:20:49;98456.06;;;-14.67;96.46
73297;BME280;61524;50.938;11.396;2022-12-16T06:23:33;98464.16;;;-14.61;95.71
73297;BME280;61524;50.938;11.396;2022-12-16T06:26:17;98472.56;;;-14.59;96.14
73297;BME280;61524;50.938;11.396;2022-12-16T06:29:01;98478.00;;;-14.63;95.90
73297;BME280;61524;50.938;11.396;2022-12-16T06:31:45;98483.34;;;-14.66;95.76
73297;BME280;61524;50.938;11.396;2022-12-16T06:34:29;98491.44;;;-14.72;94.77
73297;BME280;61524;50.938;11.396;2022-12-16T06:37:12;98489.16;;;-14.77;94.49
73297;BME280;61524;50.938;11.396;2022-12-16T06:39:56;98476.88;;;-14.85;95.00
73297;BME280;61524;50.938;11.396;2022-12-16T06:42:41;98478.00;;;-14.76;95.00
73297;BME280;61524;50.938;11.396;2022-12-16T06:45:25;98493.06;;;-14.84;95.03
73297;BME280;61524;50.938;11.396;2022-12-16T06:48:09;98514.59;;;-14.74;94.60
73297;BME280;61524;50.938;11.396;2022-12-16T06:50:53;98512.84;;;-14.86;95.26
73297;BME280;61524;50.938;11.396;2022-12-16T06:53:37;98523.00;;;-14.85;95.89
73297;BME280;61524;50.938;11.396;2022-12-16T06:56:21;98526.47;;;-14.86;94.99
73297;BME280;61524;50.938;11.396;2022-12-16T06:59:05;98527.50;;;-14.88;96.18
73297;BME280;61524;50.938;11.396;2022-12-16T07:01:49;98528.50;;;-14.91;94.82
73297;BME280;61524;50.938;11.396;2022-12-16T07:04:33;98511.06;;;-15.11;95.54
73297;BME280;61524;50.938;11.396;2022-12-16T07:07:17;98540.88;;;-14.97;95.12
73297;BME280;61524;50.938;11.396;2022-12-16T07:10:01;98536.97;;;-15.03;94.78
73297;BME280;61524;50.938;11.396;2022-12-16T07:12:45;98545.19;;;-14.98;95.68
73297;BME280;61524;50.938;11.396;2022-12-16T07:15:29;98558.13;;;-14.99;94.88
73297;BME280;61524;50.938;11.396;2022-12-16T07:18:13;98560.56;;;-14.98;94.75
73297;BME280;61524;50.938;11.396;2022-12-16T07:20:57;98561.50;;;-14.99;94.78
73297;BME280;61524;50.938;11.396;2022-12-16T07:23:41;98556.25;;;-14.97;95.22
73297;BME280;61524;50.938;11.396;2022-12-16T07:26:25;98582.00;;;-14.86;95.54
73297;BME280;61524;50.938;11.396;2022-12-16T07:29:09;98581.00;;;-14.84;96.62
73297;BME280;61524;50.938;11.396;2022-12-16T07:31:53;98588.47;;;-14.80;94.53
73297;BME280;61524;50.938;11.396;2022-12-16T07:34:37;98595.88;;;-14.76;94.45
73297;BME280;61524;50.938;11.396;2022-12-16T07:37:21;98563.38;;;-14.88;94.84
73297;BME280;61524;50.938;11.396;2022-12-16T07:40:05;98591.38;;;-14.72;94.08
73297;BME280;61524;50.938;11.396;2022-12-16T07:42:49;98589.13;;;-14.77;94.85
73297;BME280;61524;50.938;11.396;2022-12-16T07:45:33;98586.75;;;-14.80;94.63
73297;BME280;61524;50.938;11.396;2022-12-16T07:48:17;98589.13;;;-14.77;94.13
73297;BME280;61524;50.938;11.396;2022-12-16T07:51:01;98598.97;;;-14.71;95.07
73297;BME280;61524;50.938;11.396;2022-12-16T07:53:45;98608.81;;;-14.65;94.07
73297;BME280;61524;50.938;11.396;2022-12-16T07:56:29;98587.59;;;-14.67;96.09
73297;BME280;61524;50.938;11.396;2022-12-16T07:59:13;98601.47;;;-14.57;94.78
73297;BME280;61524;50.938;11.396;2022-12-16T08:01:57;98619.84;;;-14.50;95.03
73297;BME280;61524;50.938;11.396;2022-12-16T08:04:41;98603.75;;;-14.52;95.38
73297;BME280;61524;50.938;11.396;2022-12-16T08:07:25;98622.28;;;-14.48;95.58
73297;BME280;61524;50.938;11.396;2022-12-16T08:10:09;98622.69;;;-14.42;94.08
73297;BME280;61524;50.938;11.396;2022-12-16T08:13:02;98612.63;;;-14.45;95.01
73297;BME280;61524;50.938;11.396;2022-12-16T08:15:47;98631.53;;;-14.33;93.81
73297;BME280;61524;50.938;11.396;2022-12-16T08:18:31;98600.03;;;-14.61;94.56
73297;BME280;61524;50.938;11.396;2022-12-16T08:21:15;98625.69;;;-14.35;95.94
73297;BME280;61524;50.938;11.396;2022-12-16T08:23:59;98634.59;;;-14.28;95.02
73297;BME280;61524;50.938;11.396;2022-12-16T08:26:43;98648.75;;;-14.35;95.51
73297;BME280;61524;50.938;11.396;2022-12-16T08:29:27;98649.69;;;-14.36;94.72
73297;BME280;61524;50.938;11.396;2022-12-16T08:32:12;98647.84;;;-14.21;95.32
73297;BME280;61524;50.938;11.396;2022-12-16T08:34:56;98662.22;;;-14.19;94.23
73297;BME280;61524;50.938;11.396;2022-12-16T08:37:40;98649.81;;;-14.25;93.81
73297;BME280;61524;50.938;11.396;2022-12-16T08:40:24;98644.97;;;-14.30;93.54
73297;BME280;61524;50.938;11.396;2022-12-16T08:43:09;98662.13;;;-14.05;94.21
73297;BME280;61524;50.938;11.396;2022-12-16T08:45:53;98659.75;;;-13.95;94.45
73297;BME280;61524;50.938;11.396;2022-12-16T08:48:37;98651.25;;;-13.95;94.55
73297;BME280;61524;50.938;11.396;2022-12-16T08:51:21;98663.38;;;-13.85;93.39
73297;BME280;61524;50.938;11.396;2022-12-16T08:54:05;98650.75;;;-13.75;94.30
73297;BME280;61524;50.938;11.396;2022-12-16T08:56:49;98655.44;;;-13.56;94.40
73297;BME280;61524;50.938;11.396;2022-12-16T08:59:33;98664.34;;;-13.36;94.69
73297;BME280;61524;50.938;11.396;2022-12-16T09:02:17;98662.78;;;-13.26;93.89
73297;BME280;61524;50.938;11.396;2022-12-16T09:05:01;98666.59;;;-13.08;94.80
73297;BME280;61524;50.938;11.396;2022-12-16T09:07:45;98681.19;;;-12.95;94.17
73297;BME280;61524;50.938;11.396;2022-12-16T09:10:29;98689.84;;;-12.73;94.28
73297;BME280;61524;50.938;11.396;2022-12-16T09:13:14;98687.34;;;-12.61;93.24
73297;BME280;61524;50.938;11.396;2022-12-16T09:15:59;98683.50;;;-12.56;92.91
73297;BME280;61524;50.938;11.396;2022-12-16T09:18:43;98689.63;;;-12.46;93.44
73297;BME280;61524;50.938;11.396;2022-12-16T09:21:27;98673.81;;;-12.52;93.83
73297;BME280;61524;50.938;11.396;2022-12-16T09:24:11;98689.72;;;-12.23;93.02
73297;BME280;61524;50.938;11.396;2022-12-16T09:26:55;98690.91;;;-12.16;93.30
73297;BME280;61524;50.938;11.396;2022-12-16T09:29:39;98694.09;;;-12.01;93.83
73297;BME280;61524;50.938;11.396;2022-12-16T09:32:23;98695.22;;;-11.81;93.97
73297;BME280;61524;50.938;11.396;2022-12-16T09:35:07;98706.34;;;-11.58;94.15
73297;BME280;61524;50.938;11.396;2022-12-16T09:37:51;98698.25;;;-11.54;92.97
73297;BME280;61524;50.938;11.396;2022-12-16T09:40:40;98695.22;;;-11.37;93.61
73297;BME280;61524;50.938;11.396;2022-12-16T09:43:35;98705.66;;;-11.27;93.76
73297;BME280;61524;50.938;11.396;2022-12-16T09:46:35;98708.34;;;-11.06;93.85
73297;BME280;61524;50.938;11.396;2022-12-16T09:49:42;98719.81;;;-10.88;94.25
73297;BME280;61524;50.938;11.396;2022-12-16T09:52:32;98710.22;;;-10.86;94.09
73297;BME280;61524;50.938;11.396;2022-12-16T09:55:25;98686.03;;;-10.85;94.40
73297;BME280;61524;50.938;11.396;2022-12-16T09:58:12;98719.41;;;-10.61;93.80
73297;BME280;61524;50.938;11.396;2022-12-16T10:00:58;98710.63;;;-10.58;94.18
73297;BME280;61524;50.938;11.396;2022-12-16T10:03:44;98716.44;;;-10.45;94.19
73297;BME280;61524;50.938;11.396;2022-12-16T10:06:33;98722.63;;;-10.36;93.80
73297;BME280;61524;50.938;11.396;2022-12-16T10:15:30;98729.31;;;-10.13;93.83
73297;BME280;61524;50.938;11.396;2022-12-16T10:21:35;98725.06;;;-9.82;93.66
73297;BME280;61524;50.938;11.396;2022-12-16T10:27:30;98731.88;;;-9.60;93.82
73297;BME280;61524;50.938;11.396;2022-12-16T10:30:17;98739.00;;;-9.52;93.76
73297;BME280;61524;50.938;11.396;2022-12-16T10:33:01;98742.06;;;-9.37;93.57
73297;BME280;61524;50.938;11.396;2022-12-16T10:35:48;98735.69;;;-9.33;93.50
73297;BME280;61524;50.938;11.396;2022-12-16T10:41:24;98740.03;;;-9.13;93.05
73297;BME280;61524;50.938;11.396;2022-12-16T10:47:03;98726.75;;;-8.89;93.94
73297;BME280;61524;50.938;11.396;2022-12-16T10:49:49;98730.34;;;-8.80;94.64
73297;BME280;61524;50.938;11.396;2022-12-16T10:52:43;98732.97;;;-8.70;93.63
73297;BME280;61524;50.938;11.396;2022-12-16T10:56:10;98722.50;;;-8.59;94.68
73297;BME280;61524;50.938;11.396;2022-12-16T10:58:55;98739.16;;;-8.42;94.03
73297;BME280;61524;50.938;11.396;2022-12-16T11:01:55;98733.44;;;-8.36;93.48
73297;BME280;61524;50.938;11.396;2022-12-16T11:04:39;98733.56;;;-8.19;93.27
73297;BME280;61524;50.938;11.396;2022-12-16T11:07:33;98732.34;;;-8.05;93.11
73297;BME280;61524;50.938;11.396;2022-12-16T11:10:35;98730.03;;;-7.98;93.97
73297;BME280;61524;50.938;11.396;2022-12-16T11:13:27;98731.50;;;-7.86;92.79
73297;BME280;61524;50.938;11.396;2022-12-16T11:18:55;98731.75;;;-7.70;93.55
73297;BME280;61524;50.938;11.396;2022-12-16T11:21:40;98727.69;;;-7.62;93.27
73297;BME280;61524;50.938;11.396;2022-12-16T11:24:24;98723.47;;;-7.63;93.46
73297;BME280;61524;50.938;11.396;2022-12-16T11:30:24;98743.19;;;-7.43;92.96
73297;BME280;61524;50.938;11.396;2022-12-16T11:33:13;98727.91;;;-7.36;94.50
73297;BME280;61524;50.938;11.396;2022-12-16T11:36:13;98738.22;;;-7.27;93.55
73297;BME280;61524;50.938;11.396;2022-12-16T11:39:00;98733.44;;;-7.22;93.93
73297;BME280;61524;50.938;11.396;2022-12-16T11:41:47;98728.38;;;-7.14;94.00
73297;BME280;61524;50.938;11.396;2022-12-16T11:44:39;98756.09;;;-7.04;93.78
73297;BME280;61524;50.938;11.396;2022-12-16T11:47:46;98750.97;;;-6.96;93.93
73297;BME280;61524;50.938;11.396;2022-12-16T11:50:34;98757.53;;;-6.92;94.52
73297;BME280;61524;50.938;11.396;2022-12-16T11:56:22;98741.13;;;-6.83;94.17
73297;BME280;61524;50.938;11.396;2022-12-16T11:59:40;98749.66;;;-6.73;94.63
73297;BME280;61524;50.938;11.396;2022-12-16T12:05:12;98759.03;;;-6.62;94.78
73297;BME280;61524;50.938;11.396;2022-12-16T12:08:04;98767.91;;;-6.55;94.98
73297;BME280;61524;50.938;11.396;2022-12-16T12:11:35;98769.38;;;-6.52;94.30
73297;BME280;61524;50.938;11.396;2022-12-16T12:14:45;98765.91;;;-6.43;93.92
73297;BME280;61524;50.938;11.396;2022-12-16T12:17:43;98766.31;;;-6.38;93.87
73297;BME280;61524;50.938;11.396;2022-12-16T12:26:24;98776.13;;;-6.14;93.57
73297;BME280;61524;50.938;11.396;2022-12-16T12:29:19;98780.31;;;-6.03;92.94
73297;BME280;61524;50.938;11.396;2022-12-16T12:32:30;98785.94;;;-5.90;93.15
73297;BME280;61524;50.938;11.396;2022-12-16T12:44:51;98804.91;;;-5.80;92.10
73297;BME280;61524;50.938;11.396;2022-12-16T12:47:42;98800.78;;;-5.83;90.83
73297;BME280;61524;50.938;11.396;2022-12-16T12:50:40;98799.97;;;-5.83;91.80
73297;BME280;61524;50.938;11.396;2022-12-16T12:53:50;98800.56;;;-5.71;90.95
73297;BME280;61524;50.938;11.396;2022-12-16T12:56:49;98823.31;;;-5.73;91.47
73297;BME280;61524;50.938;11.396;2022-12-16T13:05:38;98828.22;;;-5.88;92.76
73297;BME280;61524;50.938;11.396;2022-12-16T13:11:41;98830.63;;;-5.95;92.89
73297;BME280;61524;50.938;11.396;2022-12-16T13:20:53;98837.13;;;-6.09;94.25
73297;BME280;61524;50.938;11.396;2022-12-16T13:23:40;98840.31;;;-6.15;93.82
73297;BME280;61524;50.938;11.396;2022-12-16T13:27:01;98840.31;;;-6.15;93.68
73297;BME280;61524;50.938;11.396;2022-12-16T13:30:00;98842.66;;;-6.21;94.02
73297;BME280;61524;50.938;11.396;2022-12-16T13:32:56;98850.47;;;-6.21;94.97
73297;BME280;61524;50.938;11.396;2022-12-16T13:35:52;98847.22;;;-6.23;94.86
73297;BME280;61524;50.938;11.396;2022-12-16T13:38:45;98846.25;;;-6.22;94.23
73297;BME280;61524;50.938;11.396;2022-12-16T13:50:44;98872.66;;;-6.27;94.89
73297;BME280;61524;50.938;11.396;2022-12-16T13:53:37;98885.69;;;-6.37;93.89
73297;BME280;61524;50.938;11.396;2022-12-16T13:56:26;98877.91;;;-6.46;93.97
73297;BME280;61524;50.938;11.396;2022-12-16T13:59:16;98895.03;;;-6.53;95.27
73297;BME280;61524;50.938;11.396;2022-12-16T14:05:00;98892.50;;;-6.73;95.32
73297;BME280;61524;50.938;11.396;2022-12-16T14:07:44;98916.31;;;-6.77;95.36
73297;BME280;61524;50.938;11.396;2022-12-16T14:25:46;98931.22;;;-7.18;95.92
73297;BME280;61524;50.938;11.396;2022-12-16T14:28:38;98927.66;;;-7.17;97.50
73297;BME280;61524;50.938;11.396;2022-12-16T14:31:40;98905.38;;;-7.49;95.82
73297;BME280;61524;50.938;11.396;2022-12-16T14:34:35;98940.06;;;-7.50;95.96
73297;BME280;61524;50.938;11.396;2022-12-16T14:37:32;98939.91;;;-7.68;96.88
73297;BME280;61524;50.938;11.396;2022-12-16T14:40:24;98942.06;;;-7.82;97.53
73297;BME280;61524;50.938;11.396;2022-12-16T14:45:58;98946.53;;;-8.25;96.96
73297;BME280;61524;50.938;11.396;2022-12-16T14:48:45;98958.38;;;-8.32;97.76
73297;BME280;61524;50.938;11.396;2022-12-16T14:51:37;98958.03;;;-8.48;97.13
73297;BME280;61524;50.938;11.396;2022-12-16T15:05:52;98955.78;;;-9.47;97.84
73297;BME280;61524;50.938;11.396;2022-12-16T15:09:03;98950.91;;;-9.62;98.46
73297;BME280;61524;50.938;11.396;2022-12-16T15:11:46;98960.44;;;-9.62;98.18
73297;BME280;61524;50.938;11.396;2022-12-16T15:14:34;98952.47;;;-9.82;98.39
73297;BME280;61524;50.938;11.396;2022-12-16T15:17:21;98959.88;;;-9.88;99.04
73297;BME280;61524;50.938;11.396;2022-12-16T15:20:27;98975.47;;;-10.01;99.44
73297;BME280;61524;50.938;11.396;2022-12-16T15:23:27;98980.09;;;-10.16;99.13
73297;BME280;61524;50.938;11.396;2022-12-16T15:26:24;98985.34;;;-10.17;99.32
73297;BME280;61524;50.938;11.396;2022-12-16T15:29:32;98986.31;;;-10.29;99.69
73297;BME280;61524;50.938;11.396;2022-12-16T15:32:35;98994.06;;;-10.41;98.81
73297;BME280;61524;50.938;11.396;2022-12-16T15:40:55;99018.03;;;-10.74;99.29
73297;BME280;61524;50.938;11.396;2022-12-16T15:43:39;99004.16;;;-10.84;99.43
73297;BME280;61524;50.938;11.396;2022-12-16T15:46:25;99012.84;;;-10.85;99.06
73297;BME280;61524;50.938;11.396;2022-12-16T15:49:26;99031.22;;;-10.90;99.38
73297;BME280;61524;50.938;11.396;2022-12-16T15:52:38;99033.09;;;-10.92;99.81
73297;BME280;61524;50.938;11.396;2022-12-16T15:55:38;99032.13;;;-11.02;100.00
73297;BME280;61524;50.938;11.396;2022-12-16T15:58:31;99043.78;;;-11.09;99.14
73297;BME280;61524;50.938;11.396;2022-12-16T16:01:19;99030.13;;;-11.22;100.00
73297;BME280;61524;50.938;11.396;2022-12-16T16:04:24;99050.53;;;-11.19;99.65
73297;BME280;61524;50.938;11.396;2022-12-16T16:07:16;99056.56;;;-11.31;99.50
73297;BME280;61524;50.938;11.396;2022-12-16T16:10:18;99061.13;;;-11.35;99.96
73297;BME280;61524;50.938;11.396;2022-12-16T16:13:04;99039.69;;;-11.48;100.00
73297;BME280;61524;50.938;11.396;2022-12-16T16:15:48;99061.75;;;-11.44;99.72
73297;BME280;61524;50.938;11.396;2022-12-16T16:18:33;99047.38;;;-11.59;99.45
73297;BME280;61524;50.938;11.396;2022-12-16T16:21:17;99062.00;;;-11.60;99.42
73297;BME280;61524;50.938;11.396;2022-12-16T16:24:01;99063.56;;;-11.70;99.66